sensor_id;sensor_type;location;lat;lon;timestamp;pressure;altitude;pressure_sealevel;temperature;humidity
20023;BME280;10172;42.054;24.546;2023-12-20T00:01:37;98488.59;;;4.05;100.00
20023;BME280;10172;42.054;24.546;2023-12-20T00:04:03;98488.94;;;3.96;100.00
20023;BME280;10172;42.054;24.546;2023-12-20T00:06:29;98488.34;;;4.11;100.00
20023;BME280;10172;42.054;24.546;2023-12-20T00:08:55;98503.56;;;4.26;100.00
20023;BME280;10172;42.054;24.546;2023-12-20T00:11:20;98497.00;;;4.36;100.00
20023;BME280;10172;42.054;24.546;2023-12-20T00:13:45;98494.03;;;4.45;100.00
20023;BME280;10172;42.054;24.546;2023-12-20T00:16:11;98482.00;;;4.38;100.00
20023;BME280;10172;42.054;24.546;2023-12-20T00:18:36;98514.47;;;4.60;100.00
20023;BME280;10172;42.054;24.546;2023-12-20T00:21:01;98490.84;;;4.14;100.00
20023;BME280;10172;42.054;24.546;2023-12-20T00:23:27;98513.16;;;4.49;100.00
20023;BME280;10172;42.054;24.546;2023-12-20T00:25:52;98503.44;;;4.72;100.00
20023;BME280;10172;42.054;24.546;2023-12-20T00:28:18;98499.16;;;4.27;100.00
20023;BME280;10172;42.054;24.546;2023-12-20T00:30:43;98496.78;;;4.19;100.00
20023;BME280;10172;42.054;24.546;2023-12-20T00:33:09;98483.97;;;4.33;100.00
20023;BME280;10172;42.054;24.546;2023-12-20T00:35:34;98512.38;;;4.68;100.00
20023;BME280;10172;42.054;24.546;2023-12-20T00:37:59;98492.63;;;4.78;100.00
20023;BME280;10172;42.054;24.546;2023-12-20T00:40:25;98496.00;;;4.17;100.00
20023;BME280;10172;42.054;24.546;2023-12-20T00:42:50;98480.19;;;4.40;100.00
20023;BME280;10172;42.054;24.546;2023-12-20T00:45:16;98488.19;;;4.80;100.00
20023;BME280;10172;42.054;24.546;2023-12-20T00:47:41;98502.81;;;4.88;100.00
20023;BME280;10172;42.054;24.546;2023-12-20T00:50:07;98481.16;;;3.93;100.00
20023;BME280;10172;42.054;24.546;2023-12-20T00:52:33;98482.63;;;4.23;100.00
20023;BME280;10172;42.054;24.546;2023-12-20T00:54:58;98476.72;;;3.48;100.00
20023;BME280;10172;42.054;24.546;2023-12-20T00:57:23;98472.59;;;3.65;100.00
20023;BME280;10172;42.054;24.546;2023-12-20T00:59:49;98474.75;;;3.53;100.00
20023;BME280;10172;42.054;24.546;2023-12-20T01:02:14;98467.66;;;3.79;100.00
20023;BME280;10172;42.054;24.546;2023-12-20T01:04:39;98460.09;;;3.46;100.00
20023;BME280;10172;42.054;24.546;2023-12-20T01:07:05;98453.66;;;3.32;100.00
20023;BME280;10172;42.054;24.546;2023-12-20T01:09:30;98441.94;;;3.40;100.00
20023;BME280;10172;42.054;24.546;2023-12-20T01:11:56;98450.94;;;3.33;100.00
20023;BME280;10172;42.054;24.546;2023-12-20T01:14:21;98443.13;;;3.32;100.00
20023;BME280;10172;42.054;24.546;2023-12-20T01:16:47;98442.59;;;3.22;100.00
20023;BME280;10172;42.054;24.546;2023-12-20T01:19:13;98463.75;;;4.12;100.00
20023;BME280;10172;42.054;24.546;2023-12-20T01:21:39;98447.88;;;3.69;100.00
20023;BME280;10172;42.054;24.546;2023-12-20T01:24:04;98451.50;;;3.89;100.00
20023;BME280;10172;42.054;24.546;2023-12-20T01:26:30;98434.94;;;3.62;100.00
20023;BME280;10172;42.054;24.546;2023-12-20T01:28:55;98420.38;;;3.31;100.00
20023;BME280;10172;42.054;24.546;2023-12-20T01:31:21;98418.19;;;3.19;100.00
20023;BME280;10172;42.054;24.546;2023-12-20T01:33:46;98405.28;;;2.88;100.00
20023;BME280;10172;42.054;24.546;2023-12-20T01:36:11;98412.53;;;3.52;100.00
20023;BME280;10172;42.054;24.546;2023-12-20T01:38:37;98410.72;;;3.31;100.00
20023;BME280;10172;42.054;24.546;2023-12-20T01:41:03;98387.16;;;3.05;100.00
20023;BME280;10172;42.054;24.546;2023-12-20T01:43:29;98406.16;;;3.12;100.00
20023;BME280;10172;42.054;24.546;2023-12-20T01:45:56;98420.78;;;2.95;100.00
20023;BME280;10172;42.054;24.546;2023-12-20T01:48:23;98410.13;;;3.00;100.00
20023;BME280;10172;42.054;24.546;2023-12-20T01:50:49;98358.75;;;2.91;100.00
20023;BME280;10172;42.054;24.546;2023-12-20T01:53:15;98368.66;;;3.08;100.00
20023;BME280;10172;42.054;24.546;2023-12-20T01:55:41;98380.63;;;2.92;100.00
20023;BME280;10172;42.054;24.546;2023-12-20T01:58:08;98387.25;;;3.02;100.00
20023;BME280;10172;42.054;24.546;2023-12-20T02:00:35;98389.47;;;3.37;100.00
20023;BME280;10172;42.054;24.546;2023-12-20T02:03:02;98378.88;;;3.16;100.00
20023;BME280;10172;42.054;24.546;2023-12-20T02:05:29;98370.53;;;3.28;100.00
20023;BME280;10172;42.054;24.546;2023-12-20T02:07:54;98348.97;;;2.95;100.00
20023;BME280;10172;42.054;24.546;2023-12-20T02:10:20;98371.03;;;3.60;100.00
20023;BME280;10172;42.054;24.546;2023-12-20T02:12:45;98369.56;;;3.07;100.00
20023;BME280;10172;42.054;24.546;2023-12-20T02:15:11;98357.78;;;3.17;100.00
20023;BME280;10172;42.054;24.546;2023-12-20T02:17:36;98360.59;;;3.81;100.00
20023;BME280;10172;42.054;24.546;2023-12-20T02:20:03;98357.00;;;3.15;100.00
20023;BME280;10172;42.054;24.546;2023-12-20T02:22:30;98335.84;;;3.18;100.00
20023;BME280;10172;42.054;24.546;2023-12-20T02:24:56;98360.84;;;3.51;100.00
20023;BME280;10172;42.054;24.546;2023-12-20T02:27:22;98344.31;;;3.26;100.00
20023;BME280;10172;42.054;24.546;2023-12-20T02:29:48;98339.38;;;3.40;100.00
20023;BME280;10172;42.054;24.546;2023-12-20T02:32:15;98351.75;;;4.03;100.00
20023;BME280;10172;42.054;24.546;2023-12-20T02:34:40;98348.63;;;3.50;100.00
20023;BME280;10172;42.054;24.546;2023-12-20T02:37:06;98352.69;;;3.36;100.00
20023;BME280;10172;42.054;24.546;2023-12-20T02:39:31;98339.13;;;3.46;100.00
20023;BME280;10172;42.054;24.546;2023-12-20T02:41:56;98351.47;;;3.44;100.00
20023;BME280;10172;42.054;24.546;2023-12-20T02:44:22;98332.44;;;3.16;100.00
20023;BME280;10172;42.054;24.546;2023-12-20T02:46:47;98330.16;;;3.06;100.00
20023;BME280;10172;42.054;24.546;2023-12-20T02:49:13;98311.19;;;2.97;100.00
20023;BME280;10172;42.054;24.546;2023-12-20T02:51:38;98319.59;;;3.30;100.00
20023;BME280;10172;42.054;24.546;2023-12-20T02:54:04;98331.25;;;3.46;100.00
20023;BME280;10172;42.054;24.546;2023-12-20T02:56:29;98334.19;;;3.60;100.00
20023;BME280;10172;42.054;24.546;2023-12-20T02:58:54;98313.22;;;3.59;100.00
20023;BME280;10172;42.054;24.546;2023-12-20T03:01:20;98310.72;;;3.56;100.00
20023;BME280;10172;42.054;24.546;2023-12-20T03:03:45;98309.53;;;3.41;100.00
20023;BME280;10172;42.054;24.546;2023-12-20T03:06:11;98335.81;;;3.86;100.00
20023;BME280;10172;42.054;24.546;2023-12-20T03:08:36;98309.91;;;3.32;100.00
20023;BME280;10172;42.054;24.546;2023-12-20T03:11:02;98314.09;;;3.36;100.00
20023;BME280;10172;42.054;24.546;2023-12-20T03:13:27;98332.56;;;3.80;100.00
20023;BME280;10172;42.054;24.546;2023-12-20T03:15:53;98317.66;;;3.57;100.00
20023;BME280;10172;42.054;24.546;2023-12-20T03:18:18;98317.94;;;3.73;100.00
20023;BME280;10172;42.054;24.546;2023-12-20T03:20:43;98311.31;;;3.62;100.00
20023;BME280;10172;42.054;24.546;2023-12-20T03:23:09;98301.41;;;3.91;100.00
20023;BME280;10172;42.054;24.546;2023-12-20T03:25:34;98301.88;;;3.57;100.00
20023;BME280;10172;42.054;24.546;2023-12-20T03:28:00;98308.63;;;3.86;100.00
20023;BME280;10172;42.054;24.546;2023-12-20T03:30:25;98306.03;;;4.06;100.00
20023;BME280;10172;42.054;24.546;2023-12-20T03:32:50;98294.13;;;3.32;100.00
20023;BME280;10172;42.054;24.546;2023-12-20T03:35:16;98298.22;;;3.39;100.00
20023;BME280;10172;42.054;24.546;2023-12-20T03:37:41;98315.47;;;3.46;100.00
20023;BME280;10172;42.054;24.546;2023-12-20T03:40:07;98291.72;;;3.03;100.00
20023;BME280;10172;42.054;24.546;2023-12-20T03:42:32;98286.06;;;2.90;100.00
20023;BME280;10172;42.054;24.546;2023-12-20T03:44:58;98301.59;;;3.86;100.00
20023;BME280;10172;42.054;24.546;2023-12-20T03:47:23;98308.63;;;3.42;100.00
20023;BME280;10172;42.054;24.546;2023-12-20T03:49:48;98299.19;;;2.92;100.00
20023;BME280;10172;42.054;24.546;2023-12-20T03:52:14;98305.66;;;2.82;100.00
20023;BME280;10172;42.054;24.546;2023-12-20T03:54:40;98306.44;;;3.30;100.00
20023;BME280;10172;42.054;24.546;2023-12-20T03:57:06;98304.56;;;2.87;100.00
20023;BME280;10172;42.054;24.546;2023-12-20T03:59:36;98292.47;;;2.83;100.00
20023;BME280;10172;42.054;24.546;2023-12-20T04:02:02;98279.16;;;2.88;100.00
20023;BME280;10172;42.054;24.546;2023-12-20T04:04:28;98266.16;;;2.62;100.00
20023;BME280;10172;42.054;24.546;2023-12-20T04:06:53;98285.63;;;2.79;100.00
20023;BME280;10172;42.054;24.546;2023-12-20T04:09:18;98284.75;;;2.79;100.00
20023;BME280;10172;42.054;24.546;2023-12-20T04:11:44;98291.19;;;3.17;100.00
20023;BME280;10172;42.054;24.546;2023-12-20T04:14:09;98278.69;;;2.77;100.00
20023;BME280;10172;42.054;24.546;2023-12-20T04:16:35;98278.38;;;3.31;100.00
20023;BME280;10172;42.054;24.546;2023-12-20T04:19:00;98287.84;;;2.67;100.00
20023;BME280;10172;42.054;24.546;2023-12-20T04:21:26;98305.97;;;2.50;100.00
20023;BME280;10172;42.054;24.546;2023-12-20T04:23:51;98281.34;;;3.00;100.00
20023;BME280;10172;42.054;24.546;2023-12-20T04:26:17;98269.56;;;2.87;100.00
20023;BME280;10172;42.054;24.546;2023-12-20T04:28:42;98256.69;;;2.81;100.00
20023;BME280;10172;42.054;24.546;2023-12-20T04:31:08;98265.69;;;2.74;100.00
20023;BME280;10172;42.054;24.546;2023-12-20T04:33:33;98276.75;;;2.59;100.00
20023;BME280;10172;42.054;24.546;2023-12-20T04:35:58;98265.50;;;2.30;100.00
20023;BME280;10172;42.054;24.546;2023-12-20T04:38:25;98260.84;;;2.86;100.00
20023;BME280;10172;42.054;24.546;2023-12-20T04:40:50;98245.91;;;2.40;100.00
20023;BME280;10172;42.054;24.546;2023-12-20T04:43:15;98266.88;;;3.12;100.00
20023;BME280;10172;42.054;24.546;2023-12-20T04:45:41;98274.19;;;3.27;100.00
20023;BME280;10172;42.054;24.546;2023-12-20T04:48:06;98276.28;;;2.71;100.00
20023;BME280;10172;42.054;24.546;2023-12-20T04:50:32;98259.06;;;2.39;100.00
20023;BME280;10172;42.054;24.546;2023-12-20T04:52:58;98221.81;;;2.29;100.00
20023;BME280;10172;42.054;24.546;2023-12-20T04:55:23;98271.13;;;2.69;100.00
20023;BME280;10172;42.054;24.546;2023-12-20T04:57:49;98265.63;;;2.98;100.00
20023;BME280;10172;42.054;24.546;2023-12-20T05:00:14;98269.75;;;2.82;100.00
20023;BME280;10172;42.054;24.546;2023-12-20T05:02:40;98251.59;;;2.52;100.00
20023;BME280;10172;42.054;24.546;2023-12-20T05:05:06;98261.84;;;2.59;100.00
20023;BME280;10172;42.054;24.546;2023-12-20T05:07:32;98262.28;;;3.17;100.00
20023;BME280;10172;42.054;24.546;2023-12-20T05:09:58;98239.47;;;2.95;100.00
20023;BME280;10172;42.054;24.546;2023-12-20T05:12:23;98248.38;;;2.91;100.00
20023;BME280;10172;42.054;24.546;2023-12-20T05:14:48;98221.66;;;2.80;100.00
20023;BME280;10172;42.054;24.546;2023-12-20T05:17:14;98231.53;;;2.51;100.00
20023;BME280;10172;42.054;24.546;2023-12-20T05:19:39;98226.50;;;2.91;100.00
20023;BME280;10172;42.054;24.546;2023-12-20T05:22:05;98230.66;;;2.50;100.00
20023;BME280;10172;42.054;24.546;2023-12-20T05:24:30;98213.69;;;2.35;100.00
20023;BME280;10172;42.054;24.546;2023-12-20T05:26:56;98214.41;;;3.09;100.00
20023;BME280;10172;42.054;24.546;2023-12-20T05:29:21;98234.56;;;2.86;100.00
20023;BME280;10172;42.054;24.546;2023-12-20T05:31:47;98220.63;;;2.61;100.00
20023;BME280;10172;42.054;24.546;2023-12-20T05:34:12;98219.31;;;2.96;100.00
20023;BME280;10172;42.054;24.546;2023-12-20T05:36:37;98214.13;;;3.16;100.00
20023;BME280;10172;42.054;24.546;2023-12-20T05:39:04;98211.72;;;2.42;100.00
20023;BME280;10172;42.054;24.546;2023-12-20T05:41:30;98212.63;;;2.16;100.00
20023;BME280;10172;42.054;24.546;2023-12-20T05:43:55;98202.50;;;2.30;100.00
20023;BME280;10172;42.054;24.546;2023-12-20T05:46:23;98203.34;;;2.56;100.00
20023;BME280;10172;42.054;24.546;2023-12-20T05:48:48;98194.78;;;2.95;100.00
20023;BME280;10172;42.054;24.546;2023-12-20T05:51:14;98196.81;;;2.89;100.00
20023;BME280;10172;42.054;24.546;2023-12-20T05:53:39;98205.38;;;2.94;100.00
20023;BME280;10172;42.054;24.546;2023-12-20T05:56:05;98216.56;;;2.76;100.00
20023;BME280;10172;42.054;24.546;2023-12-20T05:58:32;98187.41;;;3.05;100.00
20023;BME280;10172;42.054;24.546;2023-12-20T06:00:57;98188.13;;;2.87;100.00
20023;BME280;10172;42.054;24.546;2023-12-20T06:03:23;98203.44;;;2.76;100.00
20023;BME280;10172;42.054;24.546;2023-12-20T06:05:48;98203.66;;;3.15;100.00
20023;BME280;10172;42.054;24.546;2023-12-20T06:08:14;98198.66;;;2.64;100.00
20023;BME280;10172;42.054;24.546;2023-12-20T06:10:39;98205.50;;;2.68;100.00
20023;BME280;10172;42.054;24.546;2023-12-20T06:13:05;98192.00;;;2.30;100.00
20023;BME280;10172;42.054;24.546;2023-12-20T06:15:32;98215.66;;;3.00;100.00
20023;BME280;10172;42.054;24.546;2023-12-20T06:17:57;98196.53;;;2.73;100.00
20023;BME280;10172;42.054;24.546;2023-12-20T06:20:22;98202.41;;;2.80;100.00
20023;BME280;10172;42.054;24.546;2023-12-20T06:22:48;98209.63;;;2.75;100.00
20023;BME280;10172;42.054;24.546;2023-12-20T06:25:13;98188.16;;;2.40;100.00
20023;BME280;10172;42.054;24.546;2023-12-20T06:27:39;98185.69;;;2.36;100.00
20023;BME280;10172;42.054;24.546;2023-12-20T06:30:07;98208.00;;;2.71;100.00
20023;BME280;10172;42.054;24.546;2023-12-20T06:32:32;98190.75;;;2.87;100.00
20023;BME280;10172;42.054;24.546;2023-12-20T06:34:59;98182.72;;;3.13;100.00
20023;BME280;10172;42.054;24.546;2023-12-20T06:37:24;98184.50;;;3.54;100.00
20023;BME280;10172;42.054;24.546;2023-12-20T06:39:50;98181.63;;;3.40;100.00
20023;BME280;10172;42.054;24.546;2023-12-20T06:42:15;98185.06;;;3.41;100.00
20023;BME280;10172;42.054;24.546;2023-12-20T06:44:41;98174.22;;;3.07;100.00
20023;BME280;10172;42.054;24.546;2023-12-20T06:47:06;98169.44;;;2.94;100.00
20023;BME280;10172;42.054;24.546;2023-12-20T06:49:32;98193.47;;;3.07;100.00
20023;BME280;10172;42.054;24.546;2023-12-20T06:51:57;98185.59;;;3.29;100.00
20023;BME280;10172;42.054;24.546;2023-12-20T06:54:23;98194.97;;;3.56;100.00
20023;BME280;10172;42.054;24.546;2023-12-20T06:56:48;98187.19;;;3.95;100.00
20023;BME280;10172;42.054;24.546;2023-12-20T06:59:13;98189.31;;;3.65;100.00
20023;BME280;10172;42.054;24.546;2023-12-20T07:01:39;98185.06;;;2.97;100.00
20023;BME280;10172;42.054;24.546;2023-12-20T07:04:04;98199.50;;;3.09;100.00
20023;BME280;10172;42.054;24.546;2023-12-20T07:06:30;98191.19;;;3.41;100.00
20023;BME280;10172;42.054;24.546;2023-12-20T07:08:55;98194.78;;;3.60;100.00
20023;BME280;10172;42.054;24.546;2023-12-20T07:11:20;98194.13;;;3.55;100.00
20023;BME280;10172;42.054;24.546;2023-12-20T07:13:46;98157.34;;;3.12;100.00
20023;BME280;10172;42.054;24.546;2023-12-20T07:16:11;98176.50;;;3.57;100.00
20023;BME280;10172;42.054;24.546;2023-12-20T07:18:37;98164.78;;;3.44;100.00
20023;BME280;10172;42.054;24.546;2023-12-20T07:21:03;98164.88;;;3.63;100.00
20023;BME280;10172;42.054;24.546;2023-12-20T07:23:28;98185.56;;;3.50;100.00
20023;BME280;10172;42.054;24.546;2023-12-20T07:25:54;98165.34;;;3.73;100.00
20023;BME280;10172;42.054;24.546;2023-12-20T07:28:19;98166.47;;;3.67;100.00
20023;BME280;10172;42.054;24.546;2023-12-20T07:30:45;98171.09;;;3.60;100.00
20023;BME280;10172;42.054;24.546;2023-12-20T07:33:11;98142.66;;;3.90;100.00
20023;BME280;10172;42.054;24.546;2023-12-20T07:35:37;98150.84;;;3.62;100.00
20023;BME280;10172;42.054;24.546;2023-12-20T07:38:03;98148.50;;;3.97;100.00
20023;BME280;10172;42.054;24.546;2023-12-20T07:40:28;98148.22;;;4.03;100.00
20023;BME280;10172;42.054;24.546;2023-12-20T07:42:54;98150.59;;;4.09;100.00
20023;BME280;10172;42.054;24.546;2023-12-20T07:45:19;98168.41;;;4.61;100.00
20023;BME280;10172;42.054;24.546;2023-12-20T07:47:45;98157.44;;;4.70;100.00
20023;BME280;10172;42.054;24.546;2023-12-20T07:50:10;98160.72;;;4.75;100.00
20023;BME280;10172;42.054;24.546;2023-12-20T07:52:35;98160.91;;;4.90;100.00
20023;BME280;10172;42.054;24.546;2023-12-20T07:55:01;98153.41;;;5.71;100.00
20023;BME280;10172;42.054;24.546;2023-12-20T07:57:29;98164.38;;;5.27;100.00
20023;BME280;10172;42.054;24.546;2023-12-20T07:59:55;98151.44;;;5.04;100.00
20023;BME280;10172;42.054;24.546;2023-12-20T08:02:20;98156.59;;;4.89;100.00
20023;BME280;10172;42.054;24.546;2023-12-20T08:04:45;98158.09;;;4.57;100.00
20023;BME280;10172;42.054;24.546;2023-12-20T08:07:11;98146.38;;;4.62;100.00
20023;BME280;10172;42.054;24.546;2023-12-20T08:09:36;98129.09;;;4.94;100.00
20023;BME280;10172;42.054;24.546;2023-12-20T08:12:02;98130.75;;;5.14;100.00
20023;BME280;10172;42.054;24.546;2023-12-20T08:14:27;98136.16;;;5.29;100.00
20023;BME280;10172;42.054;24.546;2023-12-20T08:16:53;98147.31;;;4.99;100.00
20023;BME280;10172;42.054;24.546;2023-12-20T08:19:18;98140.81;;;5.06;100.00
20023;BME280;10172;42.054;24.546;2023-12-20T08:21:44;98143.69;;;5.01;100.00
20023;BME280;10172;42.054;24.546;2023-12-20T08:24:09;98125.56;;;5.12;100.00
20023;BME280;10172;42.054;24.546;2023-12-20T08:26:35;98133.88;;;5.22;100.00
20023;BME280;10172;42.054;24.546;2023-12-20T08:29:00;98122.22;;;5.62;100.00
20023;BME280;10172;42.054;24.546;2023-12-20T08:31:25;98128.63;;;5.92;100.00
20023;BME280;10172;42.054;24.546;2023-12-20T08:33:51;98141.75;;;5.58;100.00
20023;BME280;10172;42.054;24.546;2023-12-20T08:36:19;98128.28;;;5.81;100.00
20023;BME280;10172;42.054;24.546;2023-12-20T08:38:46;98136.03;;;5.67;100.00
20023;BME280;10172;42.054;24.546;2023-12-20T08:41:12;98111.47;;;5.30;100.00
20023;BME280;10172;42.054;24.546;2023-12-20T08:43:37;98111.41;;;5.49;100.00
20023;BME280;10172;42.054;24.546;2023-12-20T08:46:05;98096.81;;;5.76;100.00
20023;BME280;10172;42.054;24.546;2023-12-20T08:48:31;98096.38;;;6.03;100.00
20023;BME280;10172;42.054;24.546;2023-12-20T08:50:56;98090.06;;;6.05;100.00
20023;BME280;10172;42.054;24.546;2023-12-20T08:53:21;98082.09;;;5.55;100.00
20023;BME280;10172;42.054;24.546;2023-12-20T08:55:47;98086.09;;;6.14;100.00
20023;BME280;10172;42.054;24.546;2023-12-20T08:58:14;98072.94;;;6.45;100.00
20023;BME280;10172;42.054;24.546;2023-12-20T09:00:39;98081.19;;;6.39;100.00
20023;BME280;10172;42.054;24.546;2023-12-20T09:03:05;98073.72;;;6.78;100.00
20023;BME280;10172;42.054;24.546;2023-12-20T09:05:30;98059.81;;;6.59;100.00
20023;BME280;10172;42.054;24.546;2023-12-20T09:07:56;98070.63;;;6.54;100.00
20023;BME280;10172;42.054;24.546;2023-12-20T09:10:21;98039.16;;;6.97;100.00
20023;BME280;10172;42.054;24.546;2023-12-20T09:12:50;98059.94;;;7.92;100.00
20023;BME280;10172;42.054;24.546;2023-12-20T09:15:16;98061.13;;;8.16;100.00
20023;BME280;10172;42.054;24.546;2023-12-20T09:17:41;98046.88;;;7.75;100.00
20023;BME280;10172;42.054;24.546;2023-12-20T09:20:07;98045.28;;;8.01;100.00
20023;BME280;10172;42.054;24.546;2023-12-20T09:22:33;98043.28;;;7.90;100.00
20023;BME280;10172;42.054;24.546;2023-12-20T09:24:59;98028.94;;;8.08;100.00
20023;BME280;10172;42.054;24.546;2023-12-20T09:27:25;98028.00;;;8.37;100.00
20023;BME280;10172;42.054;24.546;2023-12-20T09:29:50;98036.16;;;8.34;100.00
20023;BME280;10172;42.054;24.546;2023-12-20T09:32:16;98020.00;;;8.52;100.00
20023;BME280;10172;42.054;24.546;2023-12-20T09:34:41;98003.53;;;8.61;100.00
20023;BME280;10172;42.054;24.546;2023-12-20T09:37:07;98020.38;;;8.60;100.00
20023;BME280;10172;42.054;24.546;2023-12-20T09:39:33;98001.59;;;8.77;100.00
20023;BME280;10172;42.054;24.546;2023-12-20T09:42:03;97990.75;;;8.94;100.00
20023;BME280;10172;42.054;24.546;2023-12-20T09:44:29;97988.78;;;9.10;100.00
20023;BME280;10172;42.054;24.546;2023-12-20T09:46:56;97993.19;;;9.49;100.00
20023;BME280;10172;42.054;24.546;2023-12-20T09:49:22;97998.41;;;9.50;100.00
20023;BME280;10172;42.054;24.546;2023-12-20T09:51:50;97974.31;;;9.66;100.00
20023;BME280;10172;42.054;24.546;2023-12-20T09:54:20;97983.25;;;9.90;100.00
20023;BME280;10172;42.054;24.546;2023-12-20T09:56:46;97984.31;;;10.26;100.00
20023;BME280;10172;42.054;24.546;2023-12-20T09:59:12;97987.25;;;10.34;100.00
20023;BME280;10172;42.054;24.546;2023-12-20T10:01:39;97995.88;;;10.73;100.00
20023;BME280;10172;42.054;24.546;2023-12-20T10:04:06;97969.03;;;10.53;100.00
20023;BME280;10172;42.054;24.546;2023-12-20T10:06:39;97961.53;;;10.34;100.00
20023;BME280;10172;42.054;24.546;2023-12-20T10:09:04;97969.25;;;10.73;100.00
20023;BME280;10172;42.054;24.546;2023-12-20T10:11:31;97952.69;;;10.70;100.00
20023;BME280;10172;42.054;24.546;2023-12-20T10:14:00;97940.84;;;10.50;100.00
20023;BME280;10172;42.054;24.546;2023-12-20T10:16:27;97932.75;;;10.52;100.00
20023;BME280;10172;42.054;24.546;2023-12-20T10:18:55;97950.41;;;10.53;100.00
20023;BME280;10172;42.054;24.546;2023-12-20T10:21:25;97944.25;;;10.52;100.00
20023;BME280;10172;42.054;24.546;2023-12-20T10:23:57;97908.88;;;10.39;100.00
20023;BME280;10172;42.054;24.546;2023-12-20T10:26:26;97934.06;;;10.94;100.00
20023;BME280;10172;42.054;24.546;2023-12-20T10:28:56;97928.53;;;10.97;100.00
20023;BME280;10172;42.054;24.546;2023-12-20T10:31:29;97913.66;;;10.70;100.00
20023;BME280;10172;42.054;24.546;2023-12-20T10:33:59;97906.13;;;10.28;100.00
20023;BME280;10172;42.054;24.546;2023-12-20T10:36:26;97909.09;;;10.60;100.00
20023;BME280;10172;42.054;24.546;2023-12-20T10:38:55;97913.59;;;10.83;100.00
20023;BME280;10172;42.054;24.546;2023-12-20T10:41:30;97912.91;;;10.68;100.00
20023;BME280;10172;42.054;24.546;2023-12-20T10:44:00;97906.00;;;10.42;100.00
20023;BME280;10172;42.054;24.546;2023-12-20T10:46:27;97892.13;;;10.73;100.00
20023;BME280;10172;42.054;24.546;2023-12-20T10:48:54;97895.25;;;10.67;100.00
20023;BME280;10172;42.054;24.546;2023-12-20T10:51:20;97881.78;;;10.34;100.00
20023;BME280;10172;42.054;24.546;2023-12-20T10:53:50;97868.66;;;10.67;100.00
20023;BME280;10172;42.054;24.546;2023-12-20T10:56:19;97861.69;;;10.54;100.00
20023;BME280;10172;42.054;24.546;2023-12-20T10:58:46;97862.78;;;10.51;100.00
20023;BME280;10172;42.054;24.546;2023-12-20T11:01:17;97852.84;;;10.77;100.00
20023;BME280;10172;42.054;24.546;2023-12-20T11:03:53;97857.16;;;10.67;100.00
20023;BME280;10172;42.054;24.546;2023-12-20T11:06:27;97852.69;;;10.67;100.00
20023;BME280;10172;42.054;24.546;2023-12-20T11:11:59;97841.19;;;10.67;100.00
20023;BME280;10172;42.054;24.546;2023-12-20T11:14:50;97842.97;;;10.90;100.00
20023;BME280;10172;42.054;24.546;2023-12-20T11:17:16;97843.81;;;10.56;100.00
20023;BME280;10172;42.054;24.546;2023-12-20T11:22:30;97832.88;;;9.88;100.00
20023;BME280;10172;42.054;24.546;2023-12-20T11:25:07;97829.25;;;10.25;100.00
20023;BME280;10172;42.054;24.546;2023-12-20T11:27:34;97823.94;;;10.72;100.00
20023;BME280;10172;42.054;24.546;2023-12-20T11:29:59;97801.22;;;10.21;100.00
20023;BME280;10172;42.054;24.546;2023-12-20T11:32:28;97797.19;;;10.39;100.00
20023;BME280;10172;42.054;24.546;2023-12-20T11:34:57;97810.38;;;10.64;100.00
20023;BME280;10172;42.054;24.546;2023-12-20T11:37:29;97803.41;;;10.86;100.00
20023;BME280;10172;42.054;24.546;2023-12-20T11:39:56;97795.53;;;10.84;100.00
20023;BME280;10172;42.054;24.546;2023-12-20T11:42:25;97803.47;;;11.08;100.00
20023;BME280;10172;42.054;24.546;2023-12-20T11:44:50;97801.63;;;10.97;100.00
20023;BME280;10172;42.054;24.546;2023-12-20T11:47:15;97788.44;;;11.07;100.00
20023;BME280;10172;42.054;24.546;2023-12-20T11:49:44;97776.81;;;10.97;100.00
20023;BME280;10172;42.054;24.546;2023-12-20T11:52:12;97787.63;;;11.17;100.00
20023;BME280;10172;42.054;24.546;2023-12-20T11:54:38;97791.75;;;11.21;100.00
20023;BME280;10172;42.054;24.546;2023-12-20T11:57:03;97785.34;;;11.24;100.00
20023;BME280;10172;42.054;24.546;2023-12-20T11:59:30;97794.50;;;11.20;100.00
20023;BME280;10172;42.054;24.546;2023-12-20T12:01:56;97780.25;;;11.43;100.00
20023;BME280;10172;42.054;24.546;2023-12-20T12:04:26;97764.38;;;11.41;100.00
20023;BME280;10172;42.054;24.546;2023-12-20T12:06:51;97769.94;;;11.38;100.00
20023;BME280;10172;42.054;24.546;2023-12-20T12:09:17;97768.00;;;11.63;100.00
20023;BME280;10172;42.054;24.546;2023-12-20T12:11:42;97755.53;;;11.52;100.00
20023;BME280;10172;42.054;24.546;2023-12-20T12:14:08;97761.94;;;11.61;100.00
20023;BME280;10172;42.054;24.546;2023-12-20T12:16:33;97757.72;;;11.47;100.00
20023;BME280;10172;42.054;24.546;2023-12-20T12:18:59;97741.25;;;11.53;100.00
20023;BME280;10172;42.054;24.546;2023-12-20T12:21:26;97753.03;;;11.73;100.00
20023;BME280;10172;42.054;24.546;2023-12-20T12:23:51;97745.13;;;11.82;100.00
20023;BME280;10172;42.054;24.546;2023-12-20T12:26:17;97734.69;;;11.68;100.00
20023;BME280;10172;42.054;24.546;2023-12-20T12:28:42;97730.13;;;11.70;100.00
20023;BME280;10172;42.054;24.546;2023-12-20T12:31:09;97724.56;;;11.51;100.00
20023;BME280;10172;42.054;24.546;2023-12-20T12:33:40;97749.94;;;11.99;100.00
20023;BME280;10172;42.054;24.546;2023-12-20T12:36:07;97728.13;;;12.06;100.00
20023;BME280;10172;42.054;24.546;2023-12-20T12:38:33;97744.72;;;11.98;100.00
20023;BME280;10172;42.054;24.546;2023-12-20T12:41:00;97715.06;;;11.91;100.00
20023;BME280;10172;42.054;24.546;2023-12-20T12:43:25;97726.16;;;12.08;100.00
20023;BME280;10172;42.054;24.546;2023-12-20T12:45:51;97712.94;;;12.06;100.00
20023;BME280;10172;42.054;24.546;2023-12-20T12:48:16;97716.41;;;12.18;100.00